createdAt,value
2022-10-08T00:01:36.487Z,13.20
2022-10-08T00:04:22.038Z,13.10
2022-10-08T00:07:07.625Z,13.10
2022-10-08T00:09:53.237Z,13.00
2022-10-08T00:12:38.875Z,13.00
2022-10-08T00:15:24.279Z,13.00
2022-10-08T00:18:10.413Z,13.10
2022-10-08T00:21:07.250Z,13.10
2022-10-08T00:23:53.246Z,13.20
2022-10-08T00:26:43.653Z,13.10
2022-10-08T00:29:29.221Z,13.10
2022-10-08T00:32:14.825Z,13.10
2022-10-08T00:35:00.509Z,13.10
2022-10-08T00:37:46.227Z,13.10
2022-10-08T00:40:31.995Z,13.10
2022-10-08T00:43:17.451Z,13.10
2022-10-08T00:46:04.498Z,13.10
2022-10-08T00:48:54.455Z,13.10
2022-10-08T00:51:52.511Z,13.20
2022-10-08T00:54:38.189Z,13.30
2022-10-08T00:57:23.683Z,13.30
2022-10-08T01:00:17.235Z,13.30
2022-10-08T01:02:49.059Z,13.30
2022-10-08T01:05:40.314Z,13.30
2022-10-08T01:08:38.188Z,13.30
2022-10-08T01:11:59.120Z,13.30
2022-10-08T01:15:00.411Z,13.30
2022-10-08T01:18:17.397Z,13.30
2022-10-08T01:21:24.187Z,13.30
2022-10-08T01:24:24.045Z,13.40
2022-10-08T01:27:33.362Z,13.40
2022-10-08T01:30:20.058Z,13.60
2022-10-08T01:33:42.908Z,13.70
2022-10-08T01:36:35.573Z,13.60
2022-10-08T01:39:25.467Z,13.40
2022-10-08T01:42:11.795Z,13.40
2022-10-08T01:45:02.186Z,13.30
2022-10-08T01:47:49.609Z,13.20
2022-10-08T01:50:44.385Z,13.30
2022-10-08T01:53:36.727Z,13.20
2022-10-08T01:56:27.690Z,13.30
2022-10-08T01:59:20.849Z,13.30
2022-10-08T02:02:13.656Z,13.30
2022-10-08T02:04:59.264Z,13.30
2022-10-08T02:07:44.916Z,13.20
2022-10-08T02:10:31.455Z,13.30
2022-10-08T02:13:17.020Z,13.30
2022-10-08T02:16:08.342Z,13.30
2022-10-08T02:19:21.823Z,13.30
2022-10-08T02:22:07.712Z,13.40
2022-10-08T02:25:00.186Z,13.40
2022-10-08T02:28:02.162Z,13.40
2022-10-08T02:30:58.607Z,13.40
2022-10-08T02:34:07.010Z,13.40
2022-10-08T02:37:16.447Z,13.40
2022-10-08T02:40:08.561Z,13.40
2022-10-08T02:43:00.168Z,13.60
2022-10-08T02:46:09.851Z,13.50
2022-10-08T02:49:01.171Z,13.50
2022-10-08T02:51:49.406Z,13.50
2022-10-08T02:54:38.952Z,13.50
2022-10-08T02:57:33.699Z,13.50
2022-10-08T03:00:19.517Z,13.40
2022-10-08T03:03:16.747Z,13.40
2022-10-08T03:06:06.748Z,13.40
2022-10-08T03:08:55.271Z,13.50
2022-10-08T03:11:41.236Z,13.60
2022-10-08T03:14:28.705Z,13.50
2022-10-08T03:17:19.321Z,13.60
2022-10-08T03:20:07.271Z,13.70
2022-10-08T03:22:56.667Z,13.70
2022-10-08T03:25:41.995Z,13.60
2022-10-08T03:28:27.676Z,13.60
2022-10-08T03:31:13.282Z,13.50
2022-10-08T03:33:58.961Z,13.40
2022-10-08T03:36:44.217Z,13.50
2022-10-08T03:39:30.062Z,13.70
2022-10-08T03:42:15.562Z,13.80
2022-10-08T03:45:01.553Z,13.80
2022-10-08T03:47:51.722Z,13.80
2022-10-08T03:50:37.364Z,13.70
2022-10-08T03:53:24.155Z,13.70
2022-10-08T03:56:13.860Z,13.70
2022-10-08T03:59:00.709Z,13.60
2022-10-08T04:01:46.050Z,13.60
2022-10-08T04:04:31.422Z,13.60
2022-10-08T04:07:17.075Z,13.60
2022-10-08T04:10:02.547Z,13.60
2022-10-08T04:12:48.541Z,13.50
2022-10-08T04:15:34.370Z,13.60
2022-10-08T04:18:19.699Z,13.60
2022-10-08T04:21:08.144Z,13.50
2022-10-08T04:23:53.310Z,13.50
2022-10-08T04:26:39.001Z,13.50
2022-10-08T04:29:25.002Z,13.50
2022-10-08T04:32:10.322Z,13.50
2022-10-08T04:34:55.953Z,13.50
2022-10-08T04:37:41.431Z,13.50
2022-10-08T04:40:27.017Z,13.40
2022-10-08T04:43:12.813Z,13.40
2022-10-08T04:45:58.222Z,13.30
2022-10-08T04:48:54.458Z,13.30
2022-10-08T04:51:40.134Z,13.30
2022-10-08T04:54:25.726Z,13.30
2022-10-08T04:57:10.994Z,13.30
2022-10-08T05:00:16.969Z,13.30
2022-10-08T05:03:02.079Z,13.20
2022-10-08T05:05:47.551Z,13.20
2022-10-08T05:08:34.038Z,13.20
2022-10-08T05:11:23.044Z,13.30
2022-10-08T05:14:09.980Z,13.20
2022-10-08T05:16:55.604Z,13.20
2022-10-08T05:19:41.342Z,13.20
2022-10-08T05:22:26.855Z,13.10
2022-10-08T05:25:12.629Z,13.20
2022-10-08T05:27:58.702Z,13.20
2022-10-08T05:30:44.222Z,13.10
2022-10-08T05:33:29.806Z,13.10
2022-10-08T05:36:21.905Z,13.10
2022-10-08T05:39:07.790Z,13.10
2022-10-08T05:41:54.379Z,13.10
2022-10-08T05:44:43.474Z,13.00
2022-10-08T05:47:30.901Z,13.00
2022-10-08T05:50:16.470Z,13.00
2022-10-08T05:53:04.479Z,13.00
2022-10-08T05:56:00.117Z,13.20
2022-10-08T05:58:45.936Z,13.30
2022-10-08T06:01:32.955Z,13.20
2022-10-08T06:04:18.823Z,13.00
2022-10-08T06:07:04.139Z,13.00
2022-10-08T06:09:51.241Z,13.00
2022-10-08T06:12:36.848Z,13.00
2022-10-08T06:15:22.291Z,12.90
2022-10-08T06:18:07.814Z,13.00
2022-10-08T06:20:53.708Z,12.90
2022-10-08T06:23:44.532Z,12.90
2022-10-08T06:26:36.042Z,12.90
2022-10-08T06:29:22.518Z,12.90
2022-10-08T06:32:07.942Z,13.00
2022-10-08T06:34:53.886Z,13.00
2022-10-08T06:37:40.131Z,13.10
2022-10-08T06:40:25.664Z,13.10
2022-10-08T06:43:14.132Z,13.30
2022-10-08T06:46:04.731Z,13.50
2022-10-08T06:48:50.280Z,13.60
2022-10-08T06:51:35.982Z,13.60
2022-10-08T06:54:21.298Z,13.60
2022-10-08T06:57:07.059Z,13.60
2022-10-08T06:59:54.477Z,13.60
2022-10-08T07:02:40.148Z,13.70
2022-10-08T07:05:25.426Z,13.70
2022-10-08T07:08:11.053Z,13.90
2022-10-08T07:11:10.107Z,14.00
2022-10-08T07:13:56.583Z,14.00
2022-10-08T07:16:42.327Z,14.00
2022-10-08T07:19:28.251Z,14.20
2022-10-08T07:22:13.361Z,14.30
2022-10-08T07:24:59.037Z,14.40
2022-10-08T07:27:45.156Z,14.50
2022-10-08T07:30:32.964Z,14.50
2022-10-08T07:33:18.412Z,14.50
2022-10-08T07:36:12.498Z,14.50
2022-10-08T07:39:00.916Z,14.60
2022-10-08T07:41:46.789Z,14.70
2022-10-08T07:44:32.569Z,14.80
2022-10-08T07:47:18.069Z,14.90
2022-10-08T07:50:04.476Z,14.90
2022-10-08T07:52:50.020Z,15.10
2022-10-08T07:55:35.574Z,15.10
2022-10-08T07:58:20.985Z,15.20
2022-10-08T08:01:08.819Z,15.40
2022-10-08T08:03:57.463Z,15.50
2022-10-08T08:06:47.437Z,15.50
2022-10-08T08:09:33.035Z,15.70
2022-10-08T08:12:18.778Z,15.70
2022-10-08T08:15:04.255Z,15.70
2022-10-08T08:17:49.569Z,15.70
2022-10-08T08:20:35.087Z,15.80
2022-10-08T08:23:20.512Z,15.80
2022-10-08T08:26:09.442Z,15.80
2022-10-08T08:28:57.324Z,15.90
2022-10-08T08:31:45.399Z,16.00
2022-10-08T08:34:31.206Z,16.10
2022-10-08T08:37:16.915Z,16.30
2022-10-08T08:40:02.752Z,16.30
2022-10-08T08:42:55.115Z,16.40
2022-10-08T08:45:46.992Z,16.40
2022-10-08T08:48:38.006Z,16.50
2022-10-08T08:51:24.001Z,16.50
2022-10-08T08:54:09.808Z,16.60
2022-10-08T08:56:55.298Z,16.80
2022-10-08T08:59:45.682Z,16.90
2022-10-08T09:02:38.353Z,17.20
2022-10-08T09:05:26.068Z,17.50
2022-10-08T09:08:37.486Z,17.60
2022-10-08T09:11:24.374Z,17.50
2022-10-08T09:14:10.709Z,17.40
2022-10-08T09:16:57.032Z,17.40
2022-10-08T09:19:43.025Z,17.40
2022-10-08T09:22:38.258Z,17.40
2022-10-08T09:25:25.794Z,17.40
2022-10-08T09:28:14.367Z,17.60
2022-10-08T09:31:24.426Z,17.70
2022-10-08T09:34:18.708Z,17.70
2022-10-08T09:37:05.296Z,17.80
2022-10-08T09:40:13.801Z,17.80
2022-10-08T09:43:14.613Z,17.60
2022-10-08T09:46:11.169Z,17.30
2022-10-08T09:48:56.674Z,17.30
2022-10-08T09:51:42.783Z,17.40
2022-10-08T09:54:32.971Z,17.70
2022-10-08T09:57:21.017Z,17.80
2022-10-08T10:00:07.840Z,18.10
2022-10-08T10:02:55.633Z,18.30
2022-10-08T10:05:41.518Z,18.50
2022-10-08T10:08:49.611Z,18.80
2022-10-08T10:11:48.052Z,18.90
2022-10-08T10:14:54.474Z,19.30
2022-10-08T10:18:02.767Z,19.50
2022-10-08T10:21:12.981Z,19.80
2022-10-08T10:24:29.166Z,20.10
2022-10-08T10:27:37.382Z,20.60
2022-10-08T10:30:26.997Z,21.00
2022-10-08T10:33:25.882Z,21.20
2022-10-08T10:36:17.226Z,21.10
2022-10-08T10:39:28.340Z,21.10
2022-10-08T10:42:25.652Z,21.30
2022-10-08T10:45:13.975Z,21.40
2022-10-08T10:48:00.563Z,21.30
2022-10-08T10:51:02.864Z,21.30
2022-10-08T10:54:12.941Z,21.20
2022-10-08T10:57:04.942Z,21.10
2022-10-08T11:00:10.968Z,21.10
2022-10-08T11:03:21.647Z,21.20
2022-10-08T11:06:27.065Z,21.30
2022-10-08T11:09:15.184Z,21.40
2022-10-08T11:12:22.795Z,21.30
2022-10-08T11:15:23.126Z,21.40
2022-10-08T11:18:32.571Z,21.60
2022-10-08T11:21:29.954Z,21.50
2022-10-08T11:24:51.388Z,21.30
2022-10-08T11:27:39.890Z,21.00
2022-10-08T11:30:49.266Z,21.00
2022-10-08T11:33:36.739Z,21.20
2022-10-08T11:36:32.858Z,20.90
2022-10-08T11:39:52.678Z,21.10
2022-10-08T11:43:02.132Z,20.90
2022-10-08T11:45:49.804Z,21.00
2022-10-08T11:48:36.339Z,21.00
2022-10-08T11:51:21.930Z,21.20
2022-10-08T11:54:15.402Z,21.40
2022-10-08T11:57:21.425Z,21.40
2022-10-08T12:00:37.720Z,21.10
2022-10-08T12:03:37.190Z,20.90
2022-10-08T12:06:34.964Z,20.90
2022-10-08T12:09:25.368Z,20.50
2022-10-08T12:12:14.447Z,20.00
2022-10-08T12:14:59.959Z,19.50
2022-10-08T12:17:57.254Z,19.10
2022-10-08T12:20:44.872Z,18.90
2022-10-08T12:23:30.043Z,18.70
2022-10-08T12:26:16.615Z,18.60
2022-10-08T12:29:02.346Z,18.60
2022-10-08T12:32:00.436Z,18.60
2022-10-08T12:34:45.778Z,18.90
2022-10-08T12:37:46.867Z,19.20
2022-10-08T12:40:57.219Z,19.30
2022-10-08T12:44:04.179Z,19.40
2022-10-08T12:47:16.358Z,19.30
2022-10-08T12:50:46.773Z,19.50
2022-10-08T12:53:33.369Z,19.60
2022-10-08T12:56:26.337Z,19.60
2022-10-08T12:59:12.849Z,19.50
2022-10-08T13:01:58.630Z,19.20
2022-10-08T13:04:46.947Z,19.20
2022-10-08T13:07:34.543Z,19.10
2022-10-08T13:10:27.143Z,19.00
2022-10-08T13:13:32.875Z,18.80
2022-10-08T13:16:28.731Z,18.50
2022-10-08T13:19:19.455Z,18.30
2022-10-08T13:22:08.921Z,18.20
2022-10-08T13:24:54.503Z,18.20
2022-10-08T13:27:40.206Z,18.10
2022-10-08T13:30:29.157Z,18.00
2022-10-08T13:33:23.727Z,18.00
2022-10-08T13:36:09.882Z,18.10
2022-10-08T13:38:55.188Z,18.20
2022-10-08T13:41:40.962Z,18.20
2022-10-08T13:44:27.710Z,18.10
2022-10-08T13:47:15.652Z,17.90
2022-10-08T13:50:02.068Z,17.90
2022-10-08T13:52:56.665Z,17.70
2022-10-08T13:55:45.711Z,17.50
2022-10-08T13:58:32.843Z,17.60
2022-10-08T14:01:18.505Z,17.60
2022-10-08T14:04:04.133Z,17.60
2022-10-08T14:06:53.057Z,17.60
2022-10-08T14:09:39.390Z,17.70
2022-10-08T14:12:29.006Z,17.60
2022-10-08T14:15:16.329Z,17.70
2022-10-08T14:18:01.810Z,17.80
2022-10-08T14:20:51.046Z,17.80
2022-10-08T14:23:36.570Z,17.80
2022-10-08T14:26:22.879Z,17.70
2022-10-08T14:29:08.497Z,17.80
2022-10-08T14:31:53.921Z,17.80
2022-10-08T14:34:39.530Z,17.90
2022-10-08T14:37:25.236Z,18.00
2022-10-08T14:40:16.362Z,18.10
2022-10-08T14:43:01.692Z,18.20
2022-10-08T14:45:47.502Z,18.20
2022-10-08T14:48:32.714Z,18.30
2022-10-08T14:51:18.297Z,18.30
2022-10-08T14:54:06.901Z,18.40
2022-10-08T14:56:52.445Z,18.50
2022-10-08T14:59:40.372Z,18.60
2022-10-08T15:02:26.170Z,18.70
2022-10-08T15:05:11.467Z,18.70
2022-10-08T15:07:57.205Z,18.90
2022-10-08T15:10:42.833Z,19.00
2022-10-08T15:13:29.322Z,19.20
2022-10-08T15:16:15.053Z,19.40
2022-10-08T15:19:00.689Z,19.40
2022-10-08T15:21:46.215Z,19.60
2022-10-08T15:24:31.989Z,19.80
2022-10-08T15:27:20.847Z,19.60
2022-10-08T15:30:09.109Z,19.60
2022-10-08T15:32:54.753Z,19.60
2022-10-08T15:35:40.303Z,19.60
2022-10-08T15:38:25.849Z,19.70
2022-10-08T15:41:12.179Z,19.70
2022-10-08T15:44:13.535Z,19.50
2022-10-08T15:47:06.157Z,19.40
2022-10-08T15:49:51.909Z,19.20
2022-10-08T15:52:37.081Z,19.00
2022-10-08T15:55:22.884Z,19.00
2022-10-08T15:58:08.289Z,19.00
2022-10-08T16:00:53.847Z,18.90
2022-10-08T16:03:44.911Z,19.00
2022-10-08T16:06:35.313Z,18.90
2022-10-08T16:09:22.068Z,18.80
2022-10-08T16:12:07.521Z,18.70
2022-10-08T16:14:53.309Z,18.60
2022-10-08T16:17:39.109Z,18.20
2022-10-08T16:20:24.552Z,17.90
2022-10-08T16:23:10.110Z,17.70
2022-10-08T16:25:55.737Z,17.60
2022-10-08T16:28:41.561Z,17.50
2022-10-08T16:31:29.464Z,17.40
2022-10-08T16:34:17.972Z,17.30
2022-10-08T16:37:04.985Z,17.20
2022-10-08T16:39:50.679Z,17.00
2022-10-08T16:42:36.165Z,16.90
2022-10-08T16:45:21.639Z,16.90
2022-10-08T16:48:08.477Z,16.70
2022-10-08T16:50:54.031Z,16.60
2022-10-08T16:53:39.704Z,16.50
2022-10-08T16:56:29.813Z,16.30
2022-10-08T16:59:19.318Z,16.20
2022-10-08T17:02:04.647Z,16.10
2022-10-08T17:04:50.027Z,16.00
2022-10-08T17:07:35.494Z,15.90
2022-10-08T17:10:21.055Z,15.80
2022-10-08T17:13:06.869Z,15.70
2022-10-08T17:15:59.926Z,15.60
2022-10-08T17:18:45.687Z,15.40
2022-10-08T17:21:32.734Z,15.30
2022-10-08T17:24:18.098Z,15.20
2022-10-08T17:27:03.829Z,15.00
2022-10-08T17:29:50.028Z,15.00
2022-10-08T17:32:35.342Z,14.80
2022-10-08T17:35:20.745Z,14.80
2022-10-08T17:38:06.486Z,14.70
2022-10-08T17:40:52.196Z,14.60
2022-10-08T17:43:37.717Z,14.60
2022-10-08T17:46:29.357Z,14.50
2022-10-08T17:49:16.905Z,14.40
2022-10-08T17:52:02.260Z,14.40
2022-10-08T17:54:47.666Z,14.30
2022-10-08T17:57:33.278Z,14.20
2022-10-08T18:00:18.934Z,14.10
2022-10-08T18:03:04.528Z,14.00
2022-10-08T18:05:57.501Z,13.80
2022-10-08T18:08:43.318Z,13.70
2022-10-08T18:11:31.426Z,13.60
2022-10-08T18:14:17.389Z,13.50
2022-10-08T18:17:02.736Z,13.50
2022-10-08T18:19:48.426Z,13.50
2022-10-08T18:22:33.933Z,13.20
2022-10-08T18:25:19.574Z,13.20
2022-10-08T18:28:04.914Z,13.10
2022-10-08T18:30:50.577Z,13.20
2022-10-08T18:33:38.953Z,13.30
2022-10-08T18:36:27.023Z,13.30
2022-10-08T18:39:17.505Z,13.20
2022-10-08T18:42:03.284Z,13.10
2022-10-08T18:44:48.676Z,13.10
2022-10-08T18:47:34.240Z,13.00
2022-10-08T18:50:20.176Z,12.90
2022-10-08T18:53:05.486Z,12.80
2022-10-08T18:55:51.110Z,12.70
2022-10-08T18:58:38.175Z,12.60
2022-10-08T19:01:26.889Z,12.60
2022-10-08T19:04:15.597Z,12.60
2022-10-08T19:07:01.608Z,12.60
2022-10-08T19:09:46.908Z,12.60
2022-10-08T19:12:32.804Z,12.50
2022-10-08T19:15:18.428Z,12.50
2022-10-08T19:18:05.831Z,12.40
2022-10-08T19:20:51.687Z,12.40
2022-10-08T19:23:37.488Z,12.30
2022-10-08T19:26:23.444Z,12.10
2022-10-08T19:29:15.319Z,12.10
2022-10-08T19:32:00.753Z,12.10
2022-10-08T19:34:46.337Z,12.20
2022-10-08T19:37:32.234Z,12.10
2022-10-08T19:40:17.677Z,12.10
2022-10-08T19:43:04.265Z,12.00
2022-10-08T19:45:49.686Z,11.90
2022-10-08T19:48:35.925Z,11.80
2022-10-08T19:51:22.047Z,11.80
2022-10-08T19:54:08.201Z,11.70
2022-10-08T19:56:53.955Z,11.70
2022-10-08T19:59:40.438Z,11.70
2022-10-08T20:02:26.114Z,11.70
2022-10-08T20:05:11.649Z,11.60
2022-10-08T20:07:57.783Z,11.60
2022-10-08T20:10:43.420Z,11.50
2022-10-08T20:13:29.001Z,11.40
2022-10-08T20:16:25.148Z,11.40
2022-10-08T20:19:15.361Z,11.30
2022-10-08T20:22:01.633Z,11.30
2022-10-08T20:24:47.017Z,11.30
2022-10-08T20:27:32.621Z,11.20
2022-10-08T20:30:18.081Z,11.20
2022-10-08T20:33:03.771Z,11.10
2022-10-08T20:35:49.063Z,11.00
2022-10-08T20:38:34.738Z,10.90
2022-10-08T20:41:20.713Z,10.80
2022-10-08T20:44:06.459Z,10.80
2022-10-08T20:46:52.423Z,10.90
2022-10-08T20:49:37.969Z,10.80
2022-10-08T20:52:23.662Z,10.70
2022-10-08T20:55:09.555Z,10.80
2022-10-08T20:57:55.076Z,11.00
2022-10-08T21:00:40.722Z,10.80
2022-10-08T21:03:26.155Z,10.80
2022-10-08T21:06:17.751Z,10.70
2022-10-08T21:09:03.445Z,10.60
2022-10-08T21:11:48.870Z,10.60
2022-10-08T21:14:34.460Z,10.40
2022-10-08T21:17:19.782Z,10.20
2022-10-08T21:20:05.846Z,10.30
2022-10-08T21:22:51.822Z,10.10
2022-10-08T21:25:37.128Z,10.20
2022-10-08T21:28:22.784Z,10.10
2022-10-08T21:31:09.534Z,10.00
2022-10-08T21:33:55.954Z,9.90
2022-10-08T21:36:42.742Z,9.90
2022-10-08T21:39:28.179Z,9.80
2022-10-08T21:42:13.822Z,9.70
2022-10-08T21:44:59.709Z,9.70
2022-10-08T21:47:45.467Z,9.70
2022-10-08T21:50:35.870Z,9.70
2022-10-08T21:53:22.003Z,9.60
2022-10-08T21:56:10.662Z,9.60
2022-10-08T21:58:59.029Z,9.70
2022-10-08T22:01:50.746Z,9.60
2022-10-08T22:04:36.766Z,9.60
2022-10-08T22:07:22.480Z,9.60
2022-10-08T22:10:08.759Z,9.60
2022-10-08T22:12:54.773Z,9.50
2022-10-08T22:15:49.441Z,9.40
2022-10-08T22:18:36.141Z,9.40
2022-10-08T22:21:22.918Z,9.40
2022-10-08T22:24:08.397Z,9.30
2022-10-08T22:26:54.023Z,9.30
2022-10-08T22:29:39.235Z,9.20
2022-10-08T22:32:25.066Z,9.20
2022-10-08T22:35:10.971Z,9.10
2022-10-08T22:37:56.423Z,9.10
2022-10-08T22:40:42.037Z,9.00
2022-10-08T22:43:27.893Z,9.00
2022-10-08T22:46:16.621Z,9.00
2022-10-08T22:49:05.484Z,8.80
2022-10-08T22:51:50.833Z,8.80
2022-10-08T22:54:36.566Z,8.80
2022-10-08T22:57:22.243Z,8.80
2022-10-08T23:00:08.133Z,8.60
2022-10-08T23:02:53.582Z,8.60
2022-10-08T23:05:39.146Z,8.80
2022-10-08T23:08:25.211Z,8.80
2022-10-08T23:11:11.488Z,8.80
2022-10-08T23:13:58.537Z,8.70
2022-10-08T23:16:44.067Z,8.60
2022-10-08T23:19:29.463Z,8.50
2022-10-08T23:22:15.029Z,8.60
2022-10-08T23:25:00.754Z,8.50
2022-10-08T23:27:46.051Z,8.50
2022-10-08T23:30:43.052Z,8.50
2022-10-08T23:33:29.350Z,8.50
2022-10-08T23:36:18.170Z,8.50
2022-10-08T23:39:05.350Z,8.40
2022-10-08T23:41:50.538Z,8.20
2022-10-08T23:44:36.148Z,8.20
2022-10-08T23:47:21.316Z,8.10
2022-10-08T23:50:07.475Z,8.00
2022-10-08T23:52:52.735Z,8.00
2022-10-08T23:55:38.333Z,7.90
2022-10-08T23:58:24.304Z,7.90
